Map

Track Data

SID SEASON NUMBER BASIN SUBBASIN NAME ISO_TIME NATURE LAT LON WMO_WIND WMO_PRES WMO_AGENCY TRACK_TYPE DIST2LAND LANDFALL IFLAG USA_AGENCY USA_ATCF_ID USA_LAT USA_LON USA_RECORD USA_STATUS USA_WIND USA_PRES USA_SSHS USA_R34_NE USA_R34_SE USA_R34_SW USA_R34_NW USA_R50_NE USA_R50_SE USA_R50_SW USA_R50_NW USA_R64_NE USA_R64_SE USA_R64_SW USA_R64_NW USA_POCI USA_ROCI USA_RMW USA_EYE TOKYO_LAT TOKYO_LON TOKYO_GRADE TOKYO_WIND TOKYO_PRES TOKYO_R50_DIR TOKYO_R50_LONG TOKYO_R50_SHORT TOKYO_R30_DIR TOKYO_R30_LONG TOKYO_R30_SHORT TOKYO_LAND CMA_LAT CMA_LON CMA_CAT CMA_WIND CMA_PRES HKO_LAT HKO_LON HKO_CAT HKO_WIND HKO_PRES NEWDELHI_LAT NEWDELHI_LON NEWDELHI_GRADE NEWDELHI_WIND NEWDELHI_PRES NEWDELHI_CI NEWDELHI_DP NEWDELHI_POCI REUNION_LAT REUNION_LON REUNION_TYPE REUNION_WIND REUNION_PRES REUNION_TNUM REUNION_CI REUNION_RMW REUNION_R34_NE REUNION_R34_SE REUNION_R34_SW REUNION_R34_NW REUNION_R50_NE REUNION_R50_SE REUNION_R50_SW REUNION_R50_NW REUNION_R64_NE REUNION_R64_SE REUNION_R64_SW REUNION_R64_NW BOM_LAT BOM_LON BOM_TYPE BOM_WIND BOM_PRES BOM_TNUM BOM_CI BOM_RMW BOM_R34_NE BOM_R34_SE BOM_R34_SW BOM_R34_NW BOM_R50_NE BOM_R50_SE BOM_R50_SW BOM_R50_NW BOM_R64_NE BOM_R64_SE BOM_R64_SW BOM_R64_NW BOM_ROCI BOM_POCI BOM_EYE BOM_POS_METHOD BOM_PRES_METHOD NADI_LAT NADI_LON NADI_CAT NADI_WIND NADI_PRES WELLINGTON_LAT WELLINGTON_LON WELLINGTON_WIND WELLINGTON_PRES DS824_LAT DS824_LON DS824_STAGE DS824_WIND DS824_PRES TD9636_LAT TD9636_LON TD9636_STAGE TD9636_WIND TD9636_PRES TD9635_LAT TD9635_LON TD9635_WIND TD9635_PRES TD9635_ROCI NEUMANN_LAT NEUMANN_LON NEUMANN_CLASS NEUMANN_WIND NEUMANN_PRES MLC_LAT MLC_LON MLC_CLASS MLC_WIND MLC_PRES USA_GUST BOM_GUST BOM_GUST_PER REUNION_GUST REUNION_GUST_PER USA_SEAHGT USA_SEARAD_NE USA_SEARAD_SE USA_SEARAD_SW USA_SEARAD_NW STORM_SPEED STORM_DIR
1940215N13139 1940 39 WP MM NOT_NAMED 1940-08-01 12:00:00 NR 13.3000 138.500 main 1405 1391 __________O___ -1 13.3000 138.500 4 13 336
1940215N13139 1940 39 WP MM NOT_NAMED 1940-08-01 15:00:00 NR 13.8750 138.238 main 1385 1373 __________P___ -1 13.8750 138.238 4 12 335
1940215N13139 1940 39 WP MM NOT_NAMED 1940-08-01 18:00:00 NR 14.4200 137.961 main 1375 1351 __________P___ -1 14.4200 137.961 4 12 331
1940215N13139 1940 39 WP MM NOT_NAMED 1940-08-01 21:00:00 NR 14.9050 137.653 main 1353 1321 __________P___ -1 14.9050 137.653 4 11 324
1940215N13139 1940 39 WP MM NOT_NAMED 1940-08-02 00:00:00 NR 15.3000 137.300 main 1321 1288 __________O___ -1 15.3000 137.300 4 10 313
1940215N13139 1940 39 WP MM NOT_NAMED 1940-08-02 03:00:00 NR 15.5816 136.893 main 1288 1250 __________P___ -1 15.5816 136.893 4 9 299
1940215N13139 1940 39 WP MM NOT_NAMED 1940-08-02 06:00:00 NR 15.7525 136.445 main 1243 1202 __________P___ -1 15.7525 136.445 4 9 285
1940215N13139 1940 39 WP MM NOT_NAMED 1940-08-02 09:00:00 NR 15.8222 135.975 main 1202 1151 __________P___ -1 15.8222 135.975 4 9 273
1940215N13139 1940 39 WP MM NOT_NAMED 1940-08-02 12:00:00 NR 15.8000 135.500 main 1151 1107 __________O___ -1 15.8000 135.500 4 9 263
1940215N13139 1940 39 WP MM NOT_NAMED 1940-08-02 15:00:00 NR 15.7112 135.029 main 1097 1053 __________P___ -1 15.7112 135.029 4 9 254
1940215N13139 1940 39 WP MM NOT_NAMED 1940-08-02 18:00:00 NR 15.5400 134.561 main 1049 991 __________P___ -1 15.5400 134.561 4 10 246
1940215N13139 1940 39 WP MM NOT_NAMED 1940-08-02 21:00:00 NR 15.3238 134.113 main 991 943 __________P___ -1 15.3238 134.113 4 9 242
1940215N13139 1940 39 WP MM NOT_NAMED 1940-08-03 00:00:00 NR 15.1000 133.700 main 943 896 __________O___ -1 15.1000 133.700 4 9 243
1940215N13139 1940 39 WP MM NOT_NAMED 1940-08-03 03:00:00 NR 14.9409 133.327 main 896 861 __________P___ -1 14.9409 133.327 4 8 245
1940215N13139 1940 39 WP MM NOT_NAMED 1940-08-03 06:00:00 NR 14.7796 132.991 main 861 824 __________P___ -1 14.7796 132.991 4 7 242
1940215N13139 1940 39 WP MM NOT_NAMED 1940-08-03 09:00:00 NR 14.6035 132.683 main 824 786 __________P___ -1 14.6035 132.683 4 7 236
1940215N13139 1940 39 WP MM NOT_NAMED 1940-08-03 12:00:00 NR 14.4000 132.400 main 786 749 __________O___ -1 14.4000 132.400 4 7 230
1940215N13139 1940 39 WP MM NOT_NAMED 1940-08-03 15:00:00 NR 14.1602 132.134 main 749 719 __________P___ -1 14.1602 132.134 4 7 225
1940215N13139 1940 39 WP MM NOT_NAMED 1940-08-03 18:00:00 NR 13.8902 131.882 main 719 690 __________P___ -1 13.8902 131.882 4 7 221
1940215N13139 1940 39 WP MM NOT_NAMED 1940-08-03 21:00:00 NR 13.6002 131.639 main 679 651 __________P___ -1 13.6002 131.639 4 8 218
1940215N13139 1940 39 WP MM NOT_NAMED 1940-08-04 00:00:00 NR 13.3000 131.400 main 651 __________O___ -1 13.3000 131.400 4 8 218

Digital Typhoon Data and Search

About IBTrACS Database

This database is a web-friendly format of International Best Track Archive for Climate Stewardship (IBTrACS), a global best track data archive curated by NOAA dating back to 1842.

Updated: 2021-12-03